createdAt,value
2019-02-04T00:00:47.524Z,15.30
2019-02-04T00:01:47.476Z,15.00
2019-02-04T00:02:47.472Z,13.40
2019-02-04T00:03:47.479Z,14.80
2019-02-04T00:04:47.457Z,12.50
2019-02-04T00:05:47.453Z,12.90
2019-02-04T00:06:47.443Z,14.00
2019-02-04T00:07:47.418Z,12.20
2019-02-04T00:08:47.555Z,13.80
2019-02-04T00:09:47.401Z,11.70
2019-02-04T00:10:47.395Z,14.60
2019-02-04T00:11:47.375Z,14.90
2019-02-04T00:12:47.367Z,12.90
2019-02-04T00:13:47.355Z,12.80
2019-02-04T00:14:47.343Z,12.70
2019-02-04T00:15:47.350Z,13.10
2019-02-04T00:16:47.330Z,13.80
2019-02-04T00:17:47.313Z,11.80
2019-02-04T00:18:47.302Z,13.30
2019-02-04T00:19:47.294Z,13.20
2019-02-04T00:20:47.293Z,12.90
2019-02-04T00:21:47.272Z,14.50
2019-02-04T00:22:47.266Z,14.30
2019-02-04T00:23:47.253Z,11.60
2019-02-04T00:24:47.241Z,11.70
2019-02-04T00:25:47.251Z,13.20
2019-02-04T00:26:51.606Z,13.40
2019-02-04T00:27:47.213Z,13.50
2019-02-04T00:28:47.238Z,14.00
2019-02-04T00:29:47.239Z,14.00
2019-02-04T00:30:47.220Z,14.90
2019-02-04T00:31:47.220Z,13.60
2019-02-04T00:32:47.189Z,12.70
2019-02-04T00:33:47.182Z,14.10
2019-02-04T00:34:47.142Z,13.70
2019-02-04T00:35:47.232Z,15.30
2019-02-04T00:36:47.119Z,13.70
2019-02-04T00:37:47.105Z,13.90
2019-02-04T00:38:47.095Z,14.30
2019-02-04T00:39:47.084Z,13.30
2019-02-04T00:40:47.083Z,15.30
2019-02-04T00:41:47.063Z,12.90
2019-02-04T00:42:47.054Z,15.30
2019-02-04T00:43:47.042Z,13.30
2019-02-04T00:44:47.031Z,13.80
2019-02-04T00:45:47.029Z,16.50
2019-02-04T00:46:52.180Z,12.80
2019-02-04T00:47:48.004Z,14.50
2019-02-04T00:48:46.989Z,13.70
2019-02-04T00:49:46.981Z,13.40
2019-02-04T00:50:46.981Z,13.30
2019-02-04T00:51:46.958Z,13.70
2019-02-04T00:52:47.011Z,15.30
2019-02-04T00:53:46.937Z,14.90
2019-02-04T00:54:46.927Z,16.60
2019-02-04T00:55:46.933Z,14.80
2019-02-04T00:56:46.914Z,16.70
2019-02-04T00:57:46.896Z,13.60
2019-02-04T00:58:46.889Z,14.20
2019-02-04T00:59:46.874Z,15.40
2019-02-04T01:00:46.884Z,13.50
2019-02-04T01:01:46.860Z,14.40
2019-02-04T01:02:46.846Z,15.80
2019-02-04T01:03:46.836Z,15.60
2019-02-04T01:04:46.822Z,15.30
2019-02-04T01:05:46.817Z,14.40
2019-02-04T01:06:46.817Z,16.10
2019-02-04T01:07:46.794Z,15.20
2019-02-04T01:08:46.787Z,16.60
2019-02-04T01:09:46.769Z,15.70
2019-02-04T01:10:46.761Z,15.70
2019-02-04T01:11:46.767Z,15.00
2019-02-04T01:12:46.746Z,17.30
2019-02-04T01:13:46.746Z,16.20
2019-02-04T01:14:46.723Z,15.70
2019-02-04T01:15:46.713Z,14.00
2019-02-04T01:16:46.709Z,15.50
2019-02-04T01:17:46.692Z,15.20
2019-02-04T01:18:46.695Z,14.90
2019-02-04T01:19:46.674Z,16.30
2019-02-04T01:20:46.656Z,17.30
2019-02-04T01:21:46.679Z,17.30
2019-02-04T01:22:46.648Z,16.00
2019-02-04T01:23:46.628Z,16.10
2019-02-04T01:24:48.235Z,15.80
2019-02-04T01:25:46.611Z,16.90
2019-02-04T01:26:46.607Z,16.00
2019-02-04T01:27:46.586Z,17.70
2019-02-04T01:28:46.577Z,17.00
2019-02-04T01:29:46.566Z,16.50
2019-02-04T01:30:46.552Z,18.90
2019-02-04T01:31:46.553Z,15.50
2019-02-04T01:32:46.531Z,17.50
2019-02-04T01:33:46.521Z,17.20
2019-02-04T01:34:48.910Z,17.20
2019-02-04T01:35:46.506Z,17.40
2019-02-04T01:36:46.501Z,17.20
2019-02-04T01:37:46.479Z,17.90
2019-02-04T01:38:46.472Z,16.20
2019-02-04T01:39:46.465Z,17.90
2019-02-04T01:40:46.450Z,18.80
2019-02-04T01:41:46.458Z,20.00
2019-02-04T01:42:46.431Z,19.70
2019-02-04T01:43:46.419Z,20.70
2019-02-04T01:44:46.409Z,20.30
2019-02-04T01:45:46.423Z,19.40
2019-02-04T01:46:46.414Z,18.90
2019-02-04T01:47:46.380Z,18.10
2019-02-04T01:48:46.370Z,20.50
2019-02-04T01:49:46.355Z,18.50
2019-02-04T01:50:46.344Z,19.00
2019-02-04T01:51:46.346Z,19.20
2019-02-04T01:52:46.325Z,20.30
2019-02-04T01:53:46.319Z,20.00
2019-02-04T01:54:46.310Z,20.20
2019-02-04T01:55:46.295Z,19.30
2019-02-04T01:56:46.296Z,21.60
2019-02-04T01:57:46.275Z,21.20
2019-02-04T01:58:46.265Z,20.90
2019-02-04T01:59:46.256Z,20.70
2019-02-04T02:00:46.255Z,18.80
2019-02-04T02:01:46.274Z,20.50
2019-02-04T02:02:46.228Z,20.20
2019-02-04T02:03:46.213Z,20.30
2019-02-04T02:04:46.206Z,19.50
2019-02-04T02:05:46.203Z,20.30
2019-02-04T02:06:46.200Z,21.80
2019-02-04T02:07:46.185Z,24.90
2019-02-04T02:08:46.159Z,20.90
2019-02-04T02:09:46.149Z,22.90
2019-02-04T02:10:46.140Z,22.10
2019-02-04T02:11:46.133Z,22.70
2019-02-04T02:12:46.149Z,21.70
2019-02-04T02:13:46.112Z,21.40
2019-02-04T02:14:46.097Z,21.40
2019-02-04T02:15:46.089Z,20.20
2019-02-04T02:16:46.081Z,20.80
2019-02-04T02:17:46.079Z,20.80
2019-02-04T02:18:46.060Z,21.60
2019-02-04T02:19:46.050Z,20.70
2019-02-04T02:20:46.039Z,24.00
2019-02-04T02:21:46.030Z,23.20
2019-02-04T02:22:46.043Z,22.10
2019-02-04T02:23:46.011Z,23.30
2019-02-04T02:24:45.994Z,24.40
2019-02-04T02:25:45.985Z,25.50
2019-02-04T02:26:45.976Z,23.50
2019-02-04T02:27:45.976Z,24.80
2019-02-04T02:28:45.954Z,23.50
2019-02-04T02:29:45.952Z,24.80
2019-02-04T02:30:45.934Z,23.60
2019-02-04T02:31:45.917Z,26.20
2019-02-04T02:32:45.941Z,24.80
2019-02-04T02:33:45.902Z,22.60
2019-02-04T02:34:45.896Z,21.50
2019-02-04T02:35:45.886Z,23.50
2019-02-04T02:36:45.876Z,22.60
2019-02-04T02:37:45.874Z,24.80
2019-02-04T02:38:45.846Z,24.10
2019-02-04T02:39:45.846Z,25.50
2019-02-04T02:40:45.827Z,23.50
2019-02-04T02:41:45.825Z,23.80
2019-02-04T02:42:45.813Z,25.60
2019-02-04T02:43:45.793Z,26.20
2019-02-04T02:44:45.790Z,25.30
2019-02-04T02:45:45.782Z,24.40
2019-02-04T02:46:45.774Z,25.30
2019-02-04T02:47:45.772Z,24.80
2019-02-04T02:48:45.749Z,26.30
2019-02-04T02:49:45.733Z,25.20
2019-02-04T02:50:45.726Z,26.60
2019-02-04T02:51:45.716Z,28.60
2019-02-04T02:52:45.717Z,26.30
2019-02-04T02:53:45.698Z,30.30
2019-02-04T02:54:45.681Z,25.70
2019-02-04T02:55:45.679Z,27.70
2019-02-04T02:56:45.662Z,27.40
2019-02-04T02:57:45.663Z,28.50
2019-02-04T02:58:45.672Z,27.20
2019-02-04T02:59:45.629Z,28.80
2019-02-04T03:00:45.626Z,28.10
2019-02-04T03:01:45.610Z,24.90
2019-02-04T03:02:45.617Z,28.70
2019-02-04T03:03:45.608Z,26.30
2019-02-04T03:04:45.579Z,26.40
2019-02-04T03:05:45.567Z,26.90
2019-02-04T03:06:45.553Z,25.80
2019-02-04T03:07:45.558Z,30.10
2019-02-04T03:08:45.535Z,27.00
2019-02-04T03:09:45.527Z,27.10
2019-02-04T03:10:45.521Z,26.40
2019-02-04T03:11:45.507Z,28.50
2019-02-04T03:12:45.504Z,30.90
2019-02-04T03:13:45.481Z,27.70
2019-02-04T03:14:45.483Z,27.30
2019-02-04T03:15:45.465Z,31.10
2019-02-04T03:16:45.461Z,31.00
2019-02-04T03:17:51.852Z,32.50
2019-02-04T03:18:46.426Z,32.30
2019-02-04T03:19:45.420Z,30.70
2019-02-04T03:20:45.412Z,37.10
2019-02-04T03:21:45.411Z,36.40
2019-02-04T03:22:45.397Z,31.30
2019-02-04T03:23:45.397Z,31.20
2019-02-04T03:24:45.372Z,31.00
2019-02-04T03:25:45.360Z,29.20
2019-02-04T03:26:45.347Z,32.30
2019-02-04T03:27:45.344Z,33.80
2019-02-04T03:28:45.339Z,32.50
2019-02-04T03:29:45.315Z,29.40
2019-02-04T03:30:45.306Z,28.60
2019-02-04T03:31:46.262Z,29.20
2019-02-04T03:32:45.290Z,31.30
2019-02-04T03:33:45.285Z,33.20
2019-02-04T03:34:45.263Z,31.30
2019-02-04T03:35:45.255Z,31.60
2019-02-04T03:36:45.243Z,28.40
2019-02-04T03:37:45.240Z,33.10
2019-02-04T03:38:45.244Z,31.00
2019-02-04T03:39:45.220Z,30.50
2019-02-04T03:40:45.201Z,31.10
2019-02-04T03:41:45.192Z,30.40
2019-02-04T03:42:45.178Z,28.00
2019-02-04T03:43:45.282Z,29.90
2019-02-04T03:44:45.164Z,32.70
2019-02-04T03:45:45.166Z,28.50
2019-02-04T03:46:45.138Z,31.10
2019-02-04T03:47:45.177Z,29.20
2019-02-04T03:48:45.127Z,27.90
2019-02-04T03:49:45.107Z,29.70
2019-02-04T03:50:45.108Z,30.40
2019-02-04T03:51:45.091Z,33.70
2019-02-04T03:52:45.077Z,30.10
2019-02-04T03:53:45.078Z,31.40
2019-02-04T03:54:45.053Z,28.20
2019-02-04T03:55:45.043Z,29.30
2019-02-04T03:56:45.043Z,31.20
2019-02-04T03:57:45.029Z,29.60
2019-02-04T03:58:45.022Z,33.30
2019-02-04T03:59:45.001Z,28.90
2019-02-04T04:00:44.991Z,33.20
2019-02-04T04:01:44.987Z,31.60
2019-02-04T04:02:44.977Z,29.30
2019-02-04T04:03:44.987Z,28.80
2019-02-04T04:04:44.951Z,32.50
2019-02-04T04:05:44.941Z,31.00
2019-02-04T04:06:44.931Z,28.20
2019-02-04T04:07:44.921Z,28.90
2019-02-04T04:08:44.920Z,29.70
2019-02-04T04:09:44.898Z,30.90
2019-02-04T04:10:44.890Z,29.70
2019-02-04T04:11:44.878Z,27.40
2019-02-04T04:12:44.878Z,28.20
2019-02-04T04:13:44.869Z,32.70
2019-02-04T04:14:44.852Z,33.00
2019-02-04T04:15:44.835Z,33.20
2019-02-04T04:16:44.822Z,31.90
2019-02-04T04:17:44.813Z,26.20
2019-02-04T04:18:44.839Z,28.00
2019-02-04T04:19:44.793Z,28.20
2019-02-04T04:20:44.791Z,32.60
2019-02-04T04:21:44.775Z,29.30
2019-02-04T04:22:44.765Z,27.60
2019-02-04T04:23:44.766Z,27.60
2019-02-04T04:24:44.742Z,27.60
2019-02-04T04:25:44.729Z,26.30
2019-02-04T04:26:44.740Z,27.00
2019-02-04T04:27:44.735Z,27.00
2019-02-04T04:28:44.710Z,29.10
2019-02-04T04:29:44.688Z,30.70
2019-02-04T04:30:44.677Z,29.10
2019-02-04T04:31:44.671Z,26.00
2019-02-04T04:32:44.662Z,29.60
2019-02-04T04:33:44.658Z,29.60
2019-02-04T04:34:44.639Z,28.40
2019-02-04T04:35:44.625Z,29.20
2019-02-04T04:36:44.619Z,30.10
2019-02-04T04:37:44.604Z,27.80
2019-02-04T04:38:44.609Z,30.60
2019-02-04T04:39:44.587Z,28.90
2019-02-04T04:40:44.576Z,27.60
2019-02-04T04:41:44.580Z,30.00
2019-02-04T04:42:44.572Z,26.10
2019-02-04T04:43:44.589Z,27.90
2019-02-04T04:44:44.536Z,27.70
2019-02-04T04:45:44.521Z,27.30
2019-02-04T04:46:44.520Z,26.70
2019-02-04T04:47:44.513Z,24.30
2019-02-04T04:48:44.515Z,26.70
2019-02-04T04:49:44.486Z,25.20
2019-02-04T04:50:44.475Z,25.20
2019-02-04T04:51:44.467Z,23.90
2019-02-04T04:52:44.453Z,24.10
2019-02-04T04:53:44.451Z,25.70
2019-02-04T04:54:44.430Z,27.30
2019-02-04T04:55:44.425Z,26.60
2019-02-04T04:56:44.409Z,28.20
2019-02-04T04:57:44.396Z,26.50
2019-02-04T04:58:44.397Z,25.60
2019-02-04T04:59:44.382Z,28.90
2019-02-04T05:00:44.368Z,26.30
2019-02-04T05:01:44.354Z,30.30
2019-02-04T05:02:44.346Z,29.30
2019-02-04T05:03:44.350Z,28.80
2019-02-04T05:04:44.326Z,25.40
2019-02-04T05:05:44.322Z,25.60
2019-02-04T05:06:44.302Z,28.80
2019-02-04T05:07:44.293Z,30.40
2019-02-04T05:08:44.298Z,28.20
2019-02-04T05:09:44.281Z,26.60
2019-02-04T05:10:44.271Z,28.00
2019-02-04T05:11:44.265Z,26.80
2019-02-04T05:12:44.255Z,29.60
2019-02-04T05:13:44.251Z,27.90
2019-02-04T05:14:44.233Z,30.60
2019-02-04T05:15:44.210Z,32.80
2019-02-04T05:16:44.268Z,30.10
2019-02-04T05:17:44.192Z,31.40
2019-02-04T05:18:44.229Z,29.00
2019-02-04T05:19:44.168Z,26.70
2019-02-04T05:20:44.166Z,30.20
2019-02-04T05:21:44.156Z,29.10
2019-02-04T05:22:44.142Z,29.40
2019-02-04T05:23:44.161Z,31.00
2019-02-04T05:24:44.138Z,29.40
2019-02-04T05:25:44.109Z,28.70
2019-02-04T05:26:44.102Z,30.90
2019-02-04T05:27:44.087Z,37.30
2019-02-04T05:28:44.086Z,31.50
2019-02-04T05:29:44.098Z,32.40
2019-02-04T05:30:44.056Z,27.50
2019-02-04T05:31:44.050Z,30.50
2019-02-04T05:32:44.036Z,30.80
2019-02-04T05:33:44.023Z,31.30
2019-02-04T05:34:44.029Z,27.80
2019-02-04T05:35:44.002Z,29.90
2019-02-04T05:36:43.995Z,29.50
2019-02-04T05:37:43.984Z,25.80
2019-02-04T05:38:44.053Z,25.90
2019-02-04T05:39:43.974Z,26.30
2019-02-04T05:40:43.958Z,26.40
2019-02-04T05:41:43.948Z,28.20
2019-02-04T05:42:43.930Z,27.70
2019-02-04T05:43:43.921Z,27.60
2019-02-04T05:44:43.934Z,25.80
2019-02-04T05:45:43.899Z,32.50
2019-02-04T05:46:43.904Z,28.40
2019-02-04T05:47:43.886Z,29.60
2019-02-04T05:48:49.543Z,28.90
2019-02-04T05:49:44.867Z,36.20
2019-02-04T05:50:44.736Z,27.40
2019-02-04T05:51:43.838Z,24.10
2019-02-04T05:52:43.832Z,24.80
2019-02-04T05:53:43.813Z,29.80
2019-02-04T05:54:43.820Z,30.20
2019-02-04T05:55:43.795Z,28.60
2019-02-04T05:56:43.784Z,27.20
2019-02-04T05:57:43.780Z,25.90
2019-02-04T05:58:43.765Z,25.10
2019-02-04T05:59:43.774Z,28.70
2019-02-04T06:00:43.751Z,27.20
2019-02-04T06:01:43.732Z,26.40
2019-02-04T06:02:43.728Z,29.10
2019-02-04T06:03:43.715Z,28.20
2019-02-04T06:04:43.721Z,23.40
2019-02-04T06:05:43.700Z,28.10
2019-02-04T06:06:43.684Z,29.40
2019-02-04T06:07:43.671Z,29.50
2019-02-04T06:08:43.661Z,24.90
2019-02-04T06:09:43.663Z,26.50
2019-02-04T06:10:43.646Z,27.70
2019-02-04T06:11:43.636Z,25.80
2019-02-04T06:12:43.619Z,26.30
2019-02-04T06:13:43.610Z,27.30
2019-02-04T06:14:43.605Z,30.20
2019-02-04T06:15:43.591Z,28.40
2019-02-04T06:16:43.578Z,28.50
2019-02-04T06:17:43.572Z,26.40
2019-02-04T06:18:43.563Z,28.10
2019-02-04T06:19:43.579Z,30.40
2019-02-04T06:20:43.536Z,24.60
2019-02-04T06:21:43.542Z,31.00
2019-02-04T06:22:43.546Z,27.00
2019-02-04T06:23:43.515Z,28.90
2019-02-04T06:24:43.495Z,25.80
2019-02-04T06:25:43.512Z,26.10
2019-02-04T06:26:43.473Z,28.10
2019-02-04T06:27:43.464Z,29.90
2019-02-04T06:28:43.450Z,28.40
2019-02-04T06:29:43.443Z,29.80
2019-02-04T06:30:43.449Z,29.10
2019-02-04T06:31:43.440Z,31.20
2019-02-04T06:32:43.415Z,30.30
2019-02-04T06:33:43.400Z,29.40
2019-02-04T06:34:43.389Z,28.60
2019-02-04T06:35:43.400Z,28.90
2019-02-04T06:36:43.376Z,30.20
2019-02-04T06:37:43.389Z,30.90
2019-02-04T06:38:43.346Z,28.30
2019-02-04T06:39:43.421Z,31.00
2019-02-04T06:40:43.338Z,30.20
2019-02-04T06:41:43.321Z,28.00
2019-02-04T06:42:43.314Z,32.90
2019-02-04T06:43:43.303Z,31.70
2019-02-04T06:44:43.306Z,30.90
2019-02-04T06:45:45.910Z,28.30
2019-02-04T06:46:43.265Z,28.50
2019-02-04T06:47:43.259Z,27.70
2019-02-04T06:48:43.305Z,30.10
2019-02-04T06:49:43.236Z,27.50
2019-02-04T06:50:43.245Z,29.00
2019-02-04T06:51:43.212Z,31.30
2019-02-04T06:52:43.204Z,27.10
2019-02-04T06:53:43.194Z,25.50
2019-02-04T06:54:43.186Z,28.90
2019-02-04T06:55:43.194Z,26.50
2019-02-04T06:56:43.163Z,29.20
2019-02-04T06:57:43.161Z,25.80
2019-02-04T06:58:43.147Z,26.70
2019-02-04T06:59:43.130Z,27.70
2019-02-04T07:00:43.134Z,29.10
2019-02-04T07:01:43.119Z,30.10
2019-02-04T07:02:43.097Z,26.80
2019-02-04T07:03:43.090Z,27.80
2019-02-04T07:04:43.080Z,28.70
2019-02-04T07:05:44.073Z,25.20
2019-02-04T07:06:43.056Z,26.50
2019-02-04T07:07:43.172Z,29.10
2019-02-04T07:08:43.036Z,24.20
2019-02-04T07:09:43.029Z,27.70
2019-02-04T07:10:43.073Z,27.20
2019-02-04T07:11:43.006Z,26.10
2019-02-04T07:12:43.116Z,30.80
2019-02-04T07:13:42.991Z,26.40
2019-02-04T07:14:42.975Z,25.00
2019-02-04T07:15:42.966Z,27.10
2019-02-04T07:16:43.023Z,25.70
2019-02-04T07:17:42.948Z,26.70
2019-02-04T07:18:42.936Z,25.20
2019-02-04T07:19:42.936Z,27.20
2019-02-04T07:20:42.914Z,26.90
2019-02-04T07:21:42.921Z,28.40
2019-02-04T07:22:42.912Z,24.40
2019-02-04T07:23:42.882Z,27.30
2019-02-04T07:24:43.241Z,27.90
2019-02-04T07:25:42.872Z,28.70
2019-02-04T07:26:42.849Z,26.60
2019-02-04T07:27:42.937Z,22.60
2019-02-04T07:28:42.829Z,27.60
2019-02-04T07:29:42.819Z,24.20
2019-02-04T07:30:42.817Z,23.20
2019-02-04T07:31:42.800Z,23.00
2019-02-04T07:32:42.788Z,24.20
2019-02-04T07:33:42.785Z,21.80
2019-02-04T07:34:42.769Z,22.20
2019-02-04T07:35:42.782Z,21.30
2019-02-04T07:36:42.742Z,21.70
2019-02-04T07:37:42.731Z,22.80
2019-02-04T07:38:42.722Z,19.70
2019-02-04T07:39:42.728Z,20.40
2019-02-04T07:40:42.747Z,21.00
2019-02-04T07:41:42.690Z,20.20
2019-02-04T07:42:42.679Z,19.80
2019-02-04T07:43:42.671Z,17.60
2019-02-04T07:44:42.671Z,22.00
2019-02-04T07:45:42.653Z,18.40
2019-02-04T07:46:42.652Z,17.10
2019-02-04T07:47:42.690Z,19.20
2019-02-04T07:48:42.617Z,18.70
2019-02-04T07:49:42.616Z,20.10
2019-02-04T07:50:42.596Z,22.50
2019-02-04T07:51:42.618Z,20.60
2019-02-04T07:52:42.577Z,18.60
2019-02-04T07:53:42.564Z,22.50
2019-02-04T07:54:42.556Z,18.80
2019-02-04T07:55:42.543Z,16.90
2019-02-04T07:56:42.560Z,18.40
2019-02-04T07:57:42.539Z,18.50
2019-02-04T07:58:42.512Z,17.90
2019-02-04T07:59:42.638Z,18.90
2019-02-04T08:00:42.504Z,18.00
2019-02-04T08:01:42.495Z,19.20
2019-02-04T08:02:42.470Z,16.40
2019-02-04T08:03:42.460Z,16.60
2019-02-04T08:04:42.457Z,16.10
2019-02-04T08:05:42.437Z,17.90
2019-02-04T08:06:42.444Z,14.90
2019-02-04T08:07:42.423Z,16.60
2019-02-04T08:08:42.433Z,19.00
2019-02-04T08:09:42.399Z,18.40
2019-02-04T08:10:42.397Z,19.90
2019-02-04T08:11:42.396Z,19.30
2019-02-04T08:12:42.364Z,15.00
2019-02-04T08:13:42.356Z,15.20
2019-02-04T08:14:45.148Z,17.40
2019-02-04T08:15:42.332Z,16.60
2019-02-04T08:16:42.361Z,16.40
2019-02-04T08:17:42.314Z,18.00
2019-02-04T08:18:42.298Z,16.90
2019-02-04T08:19:47.330Z,17.00
2019-02-04T08:20:43.278Z,16.30
2019-02-04T08:21:42.283Z,16.60
2019-02-04T08:22:42.256Z,16.80
2019-02-04T08:23:42.244Z,16.70
2019-02-04T08:24:42.239Z,15.40
2019-02-04T08:25:42.247Z,18.20
2019-02-04T08:26:42.257Z,15.90
2019-02-04T08:27:42.234Z,17.30
2019-02-04T08:28:42.195Z,16.80
2019-02-04T08:29:42.218Z,20.20
2019-02-04T08:30:42.178Z,18.50
2019-02-04T08:31:42.170Z,15.70
2019-02-04T08:32:42.158Z,15.10
2019-02-04T08:33:42.142Z,16.50
2019-02-04T08:34:42.125Z,15.30
2019-02-04T08:35:42.187Z,15.30
2019-02-04T08:36:44.322Z,16.60
2019-02-04T08:37:42.125Z,16.30
2019-02-04T08:38:42.087Z,16.00
2019-02-04T08:39:42.080Z,14.00
2019-02-04T08:40:42.063Z,15.50
2019-02-04T08:41:42.058Z,14.80
2019-02-04T08:42:42.054Z,14.80
2019-02-04T08:43:42.101Z,17.60
2019-02-04T08:44:42.046Z,18.00
2019-02-04T08:45:42.049Z,16.20
2019-02-04T08:46:42.002Z,16.00
2019-02-04T08:47:42.000Z,18.00
2019-02-04T08:48:41.979Z,17.90
2019-02-04T08:49:41.971Z,16.40
2019-02-04T08:50:41.955Z,17.30
2019-02-04T08:51:41.946Z,17.20
2019-02-04T08:52:41.957Z,16.40
2019-02-04T08:53:41.923Z,17.00
2019-02-04T08:54:41.913Z,15.20
2019-02-04T08:55:41.905Z,17.30
2019-02-04T08:56:43.038Z,16.70
2019-02-04T08:57:41.893Z,19.10
2019-02-04T08:58:41.872Z,19.30
2019-02-04T08:59:41.860Z,15.70
2019-02-04T09:00:41.846Z,16.20
2019-02-04T09:01:41.838Z,17.60
2019-02-04T09:02:41.853Z,16.70
2019-02-04T09:03:41.837Z,16.50
2019-02-04T09:04:41.811Z,15.80
2019-02-04T09:05:41.813Z,16.00
2019-02-04T09:06:42.013Z,16.80
2019-02-04T09:07:41.786Z,16.40
2019-02-04T09:08:41.770Z,16.10
2019-02-04T09:09:41.759Z,17.20
2019-02-04T09:10:41.746Z,16.50
2019-02-04T09:11:41.743Z,16.10
2019-02-04T09:12:41.734Z,13.50
2019-02-04T09:13:41.714Z,15.90
2019-02-04T09:14:41.699Z,15.20
2019-02-04T09:15:41.691Z,13.60
2019-02-04T09:16:41.710Z,14.90
2019-02-04T09:17:41.840Z,15.80
2019-02-04T09:18:44.883Z,17.50
2019-02-04T09:19:41.645Z,15.80
2019-02-04T09:20:41.634Z,13.70
2019-02-04T09:21:41.624Z,15.70
2019-02-04T09:22:41.623Z,15.10
2019-02-04T09:23:41.601Z,17.60
2019-02-04T09:24:41.588Z,13.80
2019-02-04T09:25:41.584Z,18.70
2019-02-04T09:26:41.570Z,13.90
2019-02-04T09:27:41.572Z,16.50
2019-02-04T09:28:41.545Z,13.80
2019-02-04T09:29:41.580Z,17.30
2019-02-04T09:30:41.569Z,14.10
2019-02-04T09:31:41.514Z,17.90
2019-02-04T09:32:41.541Z,15.60
2019-02-04T09:33:41.497Z,16.40
2019-02-04T09:34:41.482Z,16.50
2019-02-04T09:35:41.510Z,17.60
2019-02-04T09:36:41.477Z,16.30
2019-02-04T09:37:41.468Z,18.40
2019-02-04T09:38:41.451Z,17.50
2019-02-04T09:39:41.445Z,17.30
2019-02-04T09:40:41.417Z,17.60
2019-02-04T09:41:41.430Z,17.10
2019-02-04T09:42:41.412Z,16.30
2019-02-04T09:43:41.384Z,15.80
2019-02-04T09:44:41.374Z,15.20
2019-02-04T09:45:41.366Z,15.90
2019-02-04T09:46:41.362Z,16.10
2019-02-04T09:47:41.370Z,19.10
2019-02-04T09:48:41.332Z,15.50
2019-02-04T09:49:41.331Z,17.10
2019-02-04T09:50:41.309Z,16.00
2019-02-04T09:51:41.298Z,19.80
2019-02-04T09:52:41.316Z,16.40
2019-02-04T09:53:41.310Z,13.90
2019-02-04T09:54:41.264Z,15.10
2019-02-04T09:55:41.257Z,15.40
2019-02-04T09:56:41.241Z,17.70
2019-02-04T09:57:41.256Z,17.20
2019-02-04T09:58:41.231Z,15.90
2019-02-04T09:59:41.219Z,13.80
2019-02-04T10:00:41.201Z,14.70
2019-02-04T10:01:41.188Z,12.50
2019-02-04T10:02:41.180Z,15.30
2019-02-04T10:03:41.199Z,14.80
2019-02-04T10:04:41.155Z,14.80
2019-02-04T10:05:41.147Z,14.50
2019-02-04T10:06:41.134Z,13.40
2019-02-04T10:07:41.126Z,12.90
2019-02-04T10:08:41.125Z,14.50
2019-02-04T10:09:41.103Z,14.10
2019-02-04T10:10:41.100Z,14.60
2019-02-04T10:11:41.085Z,12.60
2019-02-04T10:12:41.074Z,15.30
2019-02-04T10:13:41.071Z,13.70
2019-02-04T10:14:41.050Z,19.00
2019-02-04T10:15:41.043Z,16.90
2019-02-04T10:16:41.044Z,16.70
2019-02-04T10:17:41.018Z,17.50
2019-02-04T10:18:41.065Z,15.70
2019-02-04T10:19:41.054Z,17.90
2019-02-04T10:20:40.985Z,16.60
2019-02-04T10:21:40.996Z,18.70
2019-02-04T10:22:40.969Z,16.90
2019-02-04T10:23:41.010Z,17.90
2019-02-04T10:24:40.943Z,15.70
2019-02-04T10:25:40.973Z,18.00
2019-02-04T10:26:40.943Z,17.50
2019-02-04T10:27:40.988Z,14.10
2019-02-04T10:28:41.027Z,13.40
2019-02-04T10:29:40.895Z,13.30
2019-02-04T10:30:40.918Z,14.90
2019-02-04T10:31:40.900Z,12.80
2019-02-04T10:32:40.903Z,13.40
2019-02-04T10:33:40.897Z,14.40
2019-02-04T10:34:40.850Z,13.80
2019-02-04T10:35:40.869Z,16.10
2019-02-04T10:36:40.827Z,14.80
2019-02-04T10:37:40.834Z,13.40
2019-02-04T10:38:40.838Z,14.30
2019-02-04T10:39:40.796Z,16.80
2019-02-04T10:40:40.811Z,17.80
2019-02-04T10:41:40.824Z,17.30
2019-02-04T10:42:40.818Z,14.40
2019-02-04T10:43:40.790Z,12.60
2019-02-04T10:44:40.769Z,11.40
2019-02-04T10:45:40.730Z,13.00
2019-02-04T10:46:40.732Z,15.40
2019-02-04T10:47:40.727Z,22.00
2019-02-04T10:48:40.707Z,22.00
2019-02-04T10:49:40.694Z,15.70
2019-02-04T10:50:46.323Z,17.90
2019-02-04T10:51:41.715Z,17.40
2019-02-04T10:52:40.768Z,16.60
2019-02-04T10:53:40.664Z,16.60
2019-02-04T10:54:40.658Z,15.70
2019-02-04T10:55:40.652Z,12.10
2019-02-04T10:56:40.644Z,12.80
2019-02-04T10:57:40.985Z,13.20
2019-02-04T10:58:40.601Z,13.90
2019-02-04T10:59:40.641Z,12.90
2019-02-04T11:00:40.607Z,12.60
2019-02-04T11:01:40.552Z,13.20
2019-02-04T11:02:40.567Z,11.80
2019-02-04T11:03:40.560Z,13.90
2019-02-04T11:04:40.542Z,12.80
2019-02-04T11:05:40.561Z,14.20
2019-02-04T11:06:40.537Z,17.20
2019-02-04T11:07:40.482Z,13.80
2019-02-04T11:08:40.474Z,15.60
2019-02-04T11:09:40.479Z,11.80
2019-02-04T11:10:40.487Z,12.50
2019-02-04T11:11:40.446Z,14.20
2019-02-04T11:12:40.441Z,14.00
2019-02-04T11:13:40.421Z,13.30
2019-02-04T11:14:40.422Z,16.70
2019-02-04T11:15:40.540Z,14.20
2019-02-04T11:16:40.447Z,11.80
2019-02-04T11:17:40.375Z,12.60
2019-02-04T11:18:40.374Z,13.20
2019-02-04T11:19:40.429Z,12.30
2019-02-04T11:20:40.397Z,11.80
2019-02-04T11:21:40.374Z,13.50
2019-02-04T11:22:40.369Z,13.50
2019-02-04T11:23:40.312Z,13.80
2019-02-04T11:24:40.317Z,13.90
2019-02-04T11:25:40.291Z,9.80
2019-02-04T11:26:40.281Z,10.10
2019-02-04T11:27:40.302Z,10.00
2019-02-04T11:28:40.259Z,11.10
2019-02-04T11:29:40.299Z,11.50
2019-02-04T11:30:40.255Z,12.20
2019-02-04T11:31:40.226Z,11.70
2019-02-04T11:32:40.219Z,12.50
2019-02-04T11:33:40.211Z,10.80
2019-02-04T11:34:40.215Z,11.60
2019-02-04T11:35:40.196Z,16.50
2019-02-04T11:36:40.356Z,16.80
2019-02-04T11:37:40.203Z,10.30
2019-02-04T11:38:40.174Z,11.70
2019-02-04T11:39:40.156Z,11.40
2019-02-04T11:40:40.197Z,13.80
2019-02-04T11:41:40.134Z,10.40
2019-02-04T11:42:40.115Z,11.10
2019-02-04T11:43:40.145Z,12.80
2019-02-04T11:44:40.131Z,9.70
2019-02-04T11:45:40.107Z,9.70
2019-02-04T11:46:40.064Z,9.10
2019-02-04T11:47:40.066Z,11.50
2019-02-04T11:48:40.088Z,9.70
2019-02-04T11:49:40.053Z,13.60
2019-02-04T11:50:40.017Z,13.30
2019-02-04T11:51:40.007Z,10.70
2019-02-04T11:52:39.996Z,9.90
2019-02-04T11:53:39.984Z,10.50
2019-02-04T11:54:40.044Z,8.40
2019-02-04T11:55:39.971Z,11.10
2019-02-04T11:56:39.975Z,10.00
2019-02-04T11:57:39.949Z,9.90
2019-02-04T11:58:39.933Z,12.40
2019-02-04T11:59:39.933Z,11.70
2019-02-04T12:00:39.919Z,12.10
2019-02-04T12:01:40.046Z,9.00
2019-02-04T12:02:39.964Z,8.50
2019-02-04T12:03:39.905Z,9.60
2019-02-04T12:04:39.889Z,11.50
2019-02-04T12:05:39.897Z,10.00
2019-02-04T12:06:39.857Z,12.90
2019-02-04T12:07:39.842Z,10.00
2019-02-04T12:08:39.838Z,8.90
2019-02-04T12:09:39.861Z,8.50
2019-02-04T12:10:39.806Z,7.80
2019-02-04T12:11:39.799Z,12.00
2019-02-04T12:12:39.786Z,9.90
2019-02-04T12:13:39.773Z,7.70
2019-02-04T12:14:39.775Z,7.90
2019-02-04T12:15:39.759Z,9.80
2019-02-04T12:16:39.743Z,9.30
2019-02-04T12:17:39.733Z,10.80
2019-02-04T12:18:39.766Z,7.60
2019-02-04T12:19:39.842Z,10.00
2019-02-04T12:20:40.081Z,6.60
2019-02-04T12:21:39.696Z,8.50
2019-02-04T12:22:39.683Z,11.80
2019-02-04T12:23:39.674Z,8.60
2019-02-04T12:24:39.681Z,9.20
2019-02-04T12:25:39.657Z,7.50
2019-02-04T12:26:39.638Z,10.20
2019-02-04T12:27:39.634Z,8.40
2019-02-04T12:28:39.627Z,8.00
2019-02-04T12:29:39.632Z,5.80
2019-02-04T12:30:39.598Z,6.40
2019-02-04T12:31:39.583Z,7.50
2019-02-04T12:32:39.579Z,10.40
2019-02-04T12:33:39.560Z,5.90
2019-02-04T12:34:39.578Z,10.00
2019-02-04T12:35:39.546Z,6.10
2019-02-04T12:36:39.531Z,6.50
2019-02-04T12:37:39.515Z,6.50
2019-02-04T12:38:39.514Z,7.80
2019-02-04T12:39:39.511Z,15.50
2019-02-04T12:40:39.491Z,11.00
2019-02-04T12:41:39.477Z,8.80
2019-02-04T12:42:39.464Z,9.60
2019-02-04T12:43:39.457Z,7.70
2019-02-04T12:44:39.456Z,6.30
2019-02-04T12:45:39.435Z,7.30
2019-02-04T12:46:39.421Z,9.30
2019-02-04T12:47:39.415Z,7.90
2019-02-04T12:48:39.403Z,10.70
2019-02-04T12:49:39.401Z,5.50
2019-02-04T12:50:39.384Z,9.70
2019-02-04T12:51:39.381Z,6.60
2019-02-04T12:52:39.363Z,7.90
2019-02-04T12:53:39.352Z,8.80
2019-02-04T12:54:39.354Z,7.80